createdAt,value
2017-11-03T00:00:24.088Z,1028.24
2017-11-03T00:01:24.087Z,1028.26
2017-11-03T00:02:24.071Z,1028.24
2017-11-03T00:03:24.063Z,1028.19
2017-11-03T00:04:24.054Z,1028.17
2017-11-03T00:05:24.049Z,1028.15
2017-11-03T00:06:24.040Z,1028.14
2017-11-03T00:07:24.028Z,1028.15
2017-11-03T00:08:24.019Z,1028.17
2017-11-03T00:09:24.010Z,1028.19
2017-11-03T00:10:24.004Z,1028.16
2017-11-03T00:11:23.999Z,1028.23
2017-11-03T00:12:23.986Z,1028.21
2017-11-03T00:13:23.976Z,1028.21
2017-11-03T00:14:23.966Z,1028.25
2017-11-03T00:15:23.959Z,1028.25
2017-11-03T00:16:23.950Z,1028.17
2017-11-03T00:17:23.940Z,1028.15
2017-11-03T00:18:23.932Z,1028.14
2017-11-03T00:19:23.925Z,1028.15
2017-11-03T00:20:23.914Z,1028.16
2017-11-03T00:21:23.907Z,1028.13
2017-11-03T00:22:23.897Z,1028.18
2017-11-03T00:23:23.894Z,1028.18
2017-11-03T00:24:23.880Z,1028.14
2017-11-03T00:25:23.870Z,1028.19
2017-11-03T00:26:23.863Z,1028.22
2017-11-03T00:27:23.857Z,1028.29
2017-11-03T00:28:23.846Z,1028.31
2017-11-03T00:29:23.837Z,1028.3
2017-11-03T00:30:23.829Z,1028.33
2017-11-03T00:31:23.818Z,1028.32
2017-11-03T00:32:23.813Z,1028.33
2017-11-03T00:33:23.803Z,1028.35
2017-11-03T00:34:23.799Z,1028.37
2017-11-03T00:35:23.785Z,1028.32
2017-11-03T00:36:23.777Z,1028.35
2017-11-03T00:37:23.768Z,1028.36
2017-11-03T00:38:23.762Z,1028.36
2017-11-03T00:39:23.749Z,1028.37
2017-11-03T00:40:23.741Z,1028.38
2017-11-03T00:41:23.732Z,1028.41
2017-11-03T00:42:23.725Z,1028.46
2017-11-03T00:43:23.714Z,1028.45
2017-11-03T00:44:23.709Z,1028.39
2017-11-03T00:45:23.705Z,1028.43
2017-11-03T00:46:23.689Z,1028.45
2017-11-03T00:47:23.681Z,1028.47
2017-11-03T00:48:23.674Z,1028.47
2017-11-03T00:49:23.663Z,1028.51
2017-11-03T00:50:23.655Z,1028.49
2017-11-03T00:51:23.646Z,1028.5
2017-11-03T00:52:23.638Z,1028.52
2017-11-03T00:53:23.628Z,1028.51
2017-11-03T00:54:23.620Z,1028.53
2017-11-03T00:55:23.612Z,1028.57
2017-11-03T00:56:23.603Z,1028.51
2017-11-03T00:57:23.595Z,1028.57
2017-11-03T00:58:23.586Z,1028.6
2017-11-03T00:59:23.576Z,1028.56
2017-11-03T01:00:23.575Z,1028.58
2017-11-03T01:01:23.558Z,1028.59
2017-11-03T01:02:23.550Z,1028.58
2017-11-03T01:03:23.541Z,1028.63
2017-11-03T01:04:23.531Z,1028.61
2017-11-03T01:05:23.524Z,1028.62
2017-11-03T01:06:23.515Z,1028.61
2017-11-03T01:07:23.506Z,1028.63
2017-11-03T01:08:23.498Z,1028.65
2017-11-03T01:09:23.488Z,1028.64
2017-11-03T01:10:23.479Z,1028.6
2017-11-03T01:11:23.473Z,1028.61
2017-11-03T01:12:23.461Z,1028.64
2017-11-03T01:13:23.454Z,1028.66
2017-11-03T01:14:23.446Z,1028.63
2017-11-03T01:15:23.434Z,1028.64
2017-11-03T01:16:23.427Z,1028.6
2017-11-03T01:17:23.419Z,1028.68
2017-11-03T01:18:23.411Z,1028.69
2017-11-03T01:19:23.401Z,1028.64
2017-11-03T01:20:23.391Z,1028.59
2017-11-03T01:21:23.384Z,1028.61
2017-11-03T01:22:23.375Z,1028.6
2017-11-03T01:23:23.365Z,1028.59
2017-11-03T01:24:23.358Z,1028.59
2017-11-03T01:25:23.348Z,1028.66
2017-11-03T01:26:23.339Z,1028.71
2017-11-03T01:27:23.330Z,1028.69
2017-11-03T01:28:23.323Z,1028.69
2017-11-03T01:29:23.312Z,1028.75
2017-11-03T01:30:23.305Z,1028.72
2017-11-03T01:31:23.295Z,1028.74
2017-11-03T01:32:23.287Z,1028.75
2017-11-03T01:33:23.279Z,1028.79
2017-11-03T01:34:23.268Z,1028.76
2017-11-03T01:35:23.261Z,1028.79
2017-11-03T01:36:23.252Z,1028.78
2017-11-03T01:37:23.242Z,1028.79
2017-11-03T01:38:23.241Z,1028.79
2017-11-03T01:39:23.225Z,1028.78
2017-11-03T01:40:23.216Z,1028.78
2017-11-03T01:41:23.207Z,1028.74
2017-11-03T01:42:23.198Z,1028.74
2017-11-03T01:43:23.196Z,1028.74
2017-11-03T01:44:23.181Z,1028.74
2017-11-03T01:45:23.174Z,1028.71
2017-11-03T01:46:23.170Z,1028.76
2017-11-03T01:47:23.160Z,1028.8
2017-11-03T01:48:23.148Z,1028.78
2017-11-03T01:49:23.137Z,1028.78
2017-11-03T01:50:23.130Z,1028.8
2017-11-03T01:51:23.121Z,1028.78
2017-11-03T01:52:23.111Z,1028.78
2017-11-03T01:53:23.103Z,1028.86
2017-11-03T01:54:23.096Z,1028.87
2017-11-03T01:55:23.085Z,1028.88
2017-11-03T01:56:23.077Z,1028.88
2017-11-03T01:57:23.068Z,1028.89
2017-11-03T01:58:23.060Z,1028.92
2017-11-03T01:59:23.051Z,1028.94
2017-11-03T02:00:23.043Z,1028.91
2017-11-03T02:01:23.033Z,1028.94
2017-11-03T02:02:23.024Z,1028.91
2017-11-03T02:03:23.017Z,1028.92
2017-11-03T02:04:23.007Z,1028.94
2017-11-03T02:05:22.999Z,1028.93
2017-11-03T02:06:22.988Z,1029
2017-11-03T02:07:22.979Z,1029.01
2017-11-03T02:08:22.972Z,1029.02
2017-11-03T02:09:22.964Z,1029.04
2017-11-03T02:10:22.953Z,1029.01
2017-11-03T02:11:22.945Z,1029.03
2017-11-03T02:12:22.937Z,1029.06
2017-11-03T02:13:22.928Z,1029.02
2017-11-03T02:14:22.919Z,1029.05
2017-11-03T02:15:22.911Z,1029.05
2017-11-03T02:16:22.902Z,1029.07
2017-11-03T02:17:22.892Z,1029.03
2017-11-03T02:18:22.884Z,1029.03
2017-11-03T02:19:22.877Z,1029.06
2017-11-03T02:20:22.868Z,1029.06
2017-11-03T02:21:22.865Z,1029.04
2017-11-03T02:22:22.850Z,1029.11
2017-11-03T02:23:22.841Z,1029.04
2017-11-03T02:24:22.832Z,1029.07
2017-11-03T02:25:22.822Z,1029.05
2017-11-03T02:26:22.814Z,1029.05
2017-11-03T02:27:22.806Z,1029.06
2017-11-03T02:28:22.796Z,1029.08
2017-11-03T02:29:22.787Z,1029.09
2017-11-03T02:30:22.779Z,1029.13
2017-11-03T02:31:22.776Z,1029.1
2017-11-03T02:32:22.760Z,1029.08
2017-11-03T02:33:22.752Z,1029.07
2017-11-03T02:34:22.745Z,1029.12
2017-11-03T02:35:22.737Z,1029.13
2017-11-03T02:36:22.726Z,1029.16
2017-11-03T02:37:22.718Z,1029.11
2017-11-03T02:38:22.712Z,1029.13
2017-11-03T02:39:22.700Z,1029.17
2017-11-03T02:40:22.710Z,1029.16
2017-11-03T02:41:22.684Z,1029.18
2017-11-03T02:42:22.675Z,1029.16
2017-11-03T02:43:22.665Z,1029.16
2017-11-03T02:44:22.657Z,1029.2
2017-11-03T02:45:22.650Z,1029.17
2017-11-03T02:46:22.640Z,1029.18
2017-11-03T02:47:22.629Z,1029.21
2017-11-03T02:48:22.621Z,1029.19
2017-11-03T02:49:22.613Z,1029.18
2017-11-03T02:50:22.604Z,1029.16
2017-11-03T02:51:22.594Z,1029.16
2017-11-03T02:52:22.587Z,1029.2
2017-11-03T02:53:22.579Z,1029.21
2017-11-03T02:54:22.567Z,1029.23
2017-11-03T02:55:22.561Z,1029.24
2017-11-03T02:56:22.552Z,1029.25
2017-11-03T02:57:22.542Z,1029.23
2017-11-03T02:58:22.534Z,1029.23
2017-11-03T02:59:22.525Z,1029.26
2017-11-03T03:00:22.520Z,1029.26
2017-11-03T03:01:22.507Z,1029.27
2017-11-03T03:02:22.511Z,1029.25
2017-11-03T03:03:22.490Z,1029.28
2017-11-03T03:04:22.481Z,1029.26
2017-11-03T03:05:22.471Z,1029.26
2017-11-03T03:06:22.468Z,1029.29
2017-11-03T03:07:22.454Z,1029.27
2017-11-03T03:08:22.447Z,1029.28
2017-11-03T03:09:22.436Z,1029.27
2017-11-03T03:10:22.427Z,1029.27
2017-11-03T03:11:22.420Z,1029.24
2017-11-03T03:12:22.410Z,1029.2
2017-11-03T03:13:22.403Z,1029.23
2017-11-03T03:14:22.393Z,1029.28
2017-11-03T03:15:22.384Z,1029.22
2017-11-03T03:16:22.377Z,1029.23
2017-11-03T03:17:22.367Z,1029.22
2017-11-03T03:18:22.359Z,1029.23
2017-11-03T03:19:22.349Z,1029.22
2017-11-03T03:20:22.340Z,1029.24
2017-11-03T03:21:22.332Z,1029.26
2017-11-03T03:22:22.324Z,1029.22
2017-11-03T03:23:22.315Z,1029.26
2017-11-03T03:24:22.305Z,1029.27
2017-11-03T03:25:22.298Z,1029.24
2017-11-03T03:26:22.289Z,1029.23
2017-11-03T03:27:22.278Z,1029.25
2017-11-03T03:28:22.273Z,1029.31
2017-11-03T03:29:22.264Z,1029.27
2017-11-03T03:30:22.253Z,1029.31
2017-11-03T03:31:22.243Z,1029.29
2017-11-03T03:32:22.238Z,1029.29
2017-11-03T03:33:22.227Z,1029.33
2017-11-03T03:34:22.218Z,1029.37
2017-11-03T03:35:22.209Z,1029.35
2017-11-03T03:36:22.201Z,1029.35
2017-11-03T03:37:22.193Z,1029.31
2017-11-03T03:38:22.182Z,1029.35
2017-11-03T03:39:22.174Z,1029.33
2017-11-03T03:40:22.166Z,1029.29
2017-11-03T03:41:22.156Z,1029.34
2017-11-03T03:42:22.148Z,1029.31
2017-11-03T03:43:22.139Z,1029.35
2017-11-03T03:44:22.130Z,1029.34
2017-11-03T03:45:22.121Z,1029.34
2017-11-03T03:46:22.112Z,1029.33
2017-11-03T03:47:22.107Z,1029.36
2017-11-03T03:48:22.095Z,1029.37
2017-11-03T03:49:22.084Z,1029.35
2017-11-03T03:50:22.077Z,1029.34
2017-11-03T03:51:22.068Z,1029.38
2017-11-03T03:52:22.058Z,1029.4
2017-11-03T03:53:22.050Z,1029.4
2017-11-03T03:54:22.041Z,1029.42
2017-11-03T03:55:22.033Z,1029.38
2017-11-03T03:56:22.024Z,1029.4
2017-11-03T03:57:22.015Z,1029.4
2017-11-03T03:58:22.006Z,1029.38
2017-11-03T03:59:21.997Z,1029.37
2017-11-03T04:00:21.988Z,1029.35
2017-11-03T04:01:21.981Z,1029.4
2017-11-03T04:02:21.972Z,1029.38
2017-11-03T04:03:21.961Z,1029.37
2017-11-03T04:04:21.954Z,1029.42
2017-11-03T04:05:21.954Z,1029.42
2017-11-03T04:06:21.937Z,1029.46
2017-11-03T04:07:21.927Z,1029.47
2017-11-03T04:08:21.917Z,1029.46
2017-11-03T04:09:21.912Z,1029.49
2017-11-03T04:10:21.901Z,1029.49
2017-11-03T04:11:21.892Z,1029.54
2017-11-03T04:12:21.883Z,1029.49
2017-11-03T04:13:21.874Z,1029.49
2017-11-03T04:14:21.865Z,1029.48
2017-11-03T04:15:21.857Z,1029.47
2017-11-03T04:16:21.847Z,1029.48
2017-11-03T04:17:21.841Z,1029.46
2017-11-03T04:18:21.829Z,1029.46
2017-11-03T04:19:21.823Z,1029.47
2017-11-03T04:20:21.812Z,1029.49
2017-11-03T04:21:21.805Z,1029.48
2017-11-03T04:22:21.795Z,1029.5
2017-11-03T04:23:21.789Z,1029.47
2017-11-03T04:24:21.777Z,1029.49
2017-11-03T04:25:21.772Z,1029.48
2017-11-03T04:26:21.760Z,1029.49
2017-11-03T04:27:21.752Z,1029.5
2017-11-03T04:28:21.744Z,1029.49
2017-11-03T04:29:21.734Z,1029.52
2017-11-03T04:30:21.725Z,1029.5
2017-11-03T04:31:21.718Z,1029.53
2017-11-03T04:32:21.712Z,1029.54
2017-11-03T04:33:21.698Z,1029.57
2017-11-03T04:34:21.690Z,1029.56
2017-11-03T04:35:21.682Z,1029.54
2017-11-03T04:36:21.673Z,1029.58
2017-11-03T04:37:21.665Z,1029.58
2017-11-03T04:38:21.656Z,1029.59
2017-11-03T04:39:21.648Z,1029.61
2017-11-03T04:40:21.638Z,1029.6
2017-11-03T04:41:21.630Z,1029.58
2017-11-03T04:42:21.619Z,1029.58
2017-11-03T04:43:21.612Z,1029.63
2017-11-03T04:44:21.604Z,1029.65
2017-11-03T04:45:21.594Z,1029.65
2017-11-03T04:46:21.586Z,1029.66
2017-11-03T04:47:21.576Z,1029.64
2017-11-03T04:48:21.567Z,1029.67
2017-11-03T04:49:21.559Z,1029.69
2017-11-03T04:50:21.550Z,1029.68
2017-11-03T04:51:21.541Z,1029.69
2017-11-03T04:52:21.542Z,1029.68
2017-11-03T04:53:21.524Z,1029.67
2017-11-03T04:54:21.516Z,1029.66
2017-11-03T04:55:21.506Z,1029.67
2017-11-03T04:56:21.498Z,1029.67
2017-11-03T04:57:21.490Z,1029.68
2017-11-03T04:58:21.481Z,1029.71
2017-11-03T04:59:21.472Z,1029.69
2017-11-03T05:00:21.462Z,1029.71
2017-11-03T05:01:21.456Z,1029.68
2017-11-03T05:02:21.445Z,1029.71
2017-11-03T05:03:21.440Z,1029.75
2017-11-03T05:04:21.429Z,1029.78
2017-11-03T05:05:21.418Z,1029.74
2017-11-03T05:06:21.411Z,1029.75
2017-11-03T05:07:21.401Z,1029.79
2017-11-03T05:08:21.407Z,1029.79
2017-11-03T05:09:21.383Z,1029.76
2017-11-03T05:10:21.375Z,1029.78
2017-11-03T05:11:21.369Z,1029.79
2017-11-03T05:12:21.359Z,1029.79
2017-11-03T05:13:21.349Z,1029.78
2017-11-03T05:14:21.341Z,1029.82
2017-11-03T05:15:21.334Z,1029.83
2017-11-03T05:16:21.322Z,1029.84
2017-11-03T05:17:21.314Z,1029.8
2017-11-03T05:18:21.305Z,1029.86
2017-11-03T05:19:21.297Z,1029.89
2017-11-03T05:20:21.290Z,1029.91
2017-11-03T05:21:21.279Z,1029.87
2017-11-03T05:22:21.270Z,1029.84
2017-11-03T05:23:21.262Z,1029.86
2017-11-03T05:24:21.253Z,1029.93
2017-11-03T05:25:21.244Z,1029.91
2017-11-03T05:26:21.235Z,1029.94
2017-11-03T05:27:21.226Z,1029.93
2017-11-03T05:28:21.217Z,1029.92
2017-11-03T05:29:21.209Z,1029.94
2017-11-03T05:30:21.201Z,1029.9
2017-11-03T05:31:21.192Z,1029.87
2017-11-03T05:32:21.183Z,1029.85
2017-11-03T05:33:21.175Z,1029.9
2017-11-03T05:34:21.164Z,1029.86
2017-11-03T05:35:21.162Z,1029.85
2017-11-03T05:36:21.146Z,1029.86
2017-11-03T05:37:21.139Z,1029.86
2017-11-03T05:38:21.129Z,1029.87
2017-11-03T05:39:21.121Z,1029.85
2017-11-03T05:40:21.113Z,1029.88
2017-11-03T05:41:21.103Z,1029.9
2017-11-03T05:42:21.094Z,1029.9
2017-11-03T05:43:21.085Z,1029.89
2017-11-03T05:44:21.078Z,1029.89
2017-11-03T05:45:21.069Z,1029.88
2017-11-03T05:46:21.061Z,1029.92
2017-11-03T05:47:21.052Z,1029.9
2017-11-03T05:48:21.042Z,1029.93
2017-11-03T05:49:21.032Z,1029.95
2017-11-03T05:50:21.025Z,1030.01
2017-11-03T05:51:21.016Z,1030.02
2017-11-03T05:52:21.009Z,1030.03
2017-11-03T05:53:21.007Z,1030.04
2017-11-03T05:54:20.999Z,1030.03
2017-11-03T05:55:20.980Z,1030.06
2017-11-03T05:56:20.973Z,1030.08
2017-11-03T05:57:20.983Z,1030.05
2017-11-03T05:58:20.955Z,1030.12
2017-11-03T05:59:20.946Z,1030.13
2017-11-03T06:00:20.937Z,1030.13
2017-11-03T06:01:20.928Z,1030.15
2017-11-03T06:02:20.920Z,1030.2
2017-11-03T06:03:20.912Z,1030.24
2017-11-03T06:04:20.903Z,1030.26
2017-11-03T06:05:20.893Z,1030.27
2017-11-03T06:06:20.885Z,1030.28
2017-11-03T06:07:20.878Z,1030.29
2017-11-03T06:08:20.868Z,1030.33
2017-11-03T06:09:20.860Z,1030.35
2017-11-03T06:10:20.851Z,1030.42
2017-11-03T06:11:20.841Z,1030.47
2017-11-03T06:12:20.833Z,1030.44
2017-11-03T06:13:20.825Z,1030.47
2017-11-03T06:14:20.817Z,1030.5
2017-11-03T06:15:20.807Z,1030.49
2017-11-03T06:16:20.798Z,1030.54
2017-11-03T06:17:20.790Z,1030.6
2017-11-03T06:18:20.788Z,1030.56
2017-11-03T06:19:20.772Z,1030.52
2017-11-03T06:20:20.765Z,1030.57
2017-11-03T06:21:20.755Z,1030.53
2017-11-03T06:22:20.746Z,1030.58
2017-11-03T06:23:20.738Z,1030.58
2017-11-03T06:24:20.728Z,1030.61
2017-11-03T06:25:20.721Z,1030.59
2017-11-03T06:26:20.711Z,1030.61
2017-11-03T06:27:20.702Z,1030.62
2017-11-03T06:28:20.694Z,1030.64
2017-11-03T06:29:20.694Z,1030.62
2017-11-03T06:30:20.685Z,1030.62
2017-11-03T06:31:20.668Z,1030.63
2017-11-03T06:32:20.661Z,1030.61
2017-11-03T06:33:20.650Z,1030.59
2017-11-03T06:34:20.641Z,1030.61
2017-11-03T06:35:20.640Z,1030.58
2017-11-03T06:36:20.625Z,1030.54
2017-11-03T06:37:20.616Z,1030.57
2017-11-03T06:38:20.613Z,1030.57
2017-11-03T06:39:20.600Z,1030.57
2017-11-03T06:40:20.589Z,1030.61
2017-11-03T06:41:20.582Z,1030.59
2017-11-03T06:42:20.571Z,1030.56
2017-11-03T06:43:20.563Z,1030.59
2017-11-03T06:44:20.555Z,1030.64
2017-11-03T06:45:20.546Z,1030.6
2017-11-03T06:46:20.538Z,1030.59
2017-11-03T06:47:20.528Z,1030.59
2017-11-03T06:48:20.525Z,1030.59
2017-11-03T06:49:20.512Z,1030.58
2017-11-03T06:50:20.503Z,1030.57
2017-11-03T06:51:20.494Z,1030.61
2017-11-03T06:52:20.489Z,1030.6
2017-11-03T06:53:20.477Z,1030.61
2017-11-03T06:54:20.469Z,1030.66
2017-11-03T06:55:20.458Z,1030.69
2017-11-03T06:56:20.450Z,1030.66
2017-11-03T06:57:20.442Z,1030.7
2017-11-03T06:58:20.434Z,1030.75
2017-11-03T06:59:20.424Z,1030.78
2017-11-03T07:00:20.416Z,1030.75
2017-11-03T07:01:20.408Z,1030.75
2017-11-03T07:02:20.399Z,1030.76
2017-11-03T07:03:20.389Z,1030.81
2017-11-03T07:04:20.388Z,1030.79
2017-11-03T07:05:20.374Z,1030.76
2017-11-03T07:06:20.364Z,1030.75
2017-11-03T07:07:20.356Z,1030.78
2017-11-03T07:08:20.349Z,1030.71
2017-11-03T07:09:20.340Z,1030.72
2017-11-03T07:10:20.331Z,1030.73
2017-11-03T07:11:20.321Z,1030.71
2017-11-03T07:12:20.312Z,1030.72
2017-11-03T07:13:20.305Z,1030.68
2017-11-03T07:14:20.295Z,1030.68
2017-11-03T07:15:20.287Z,1030.66
2017-11-03T07:16:20.280Z,1030.67
2017-11-03T07:17:20.271Z,1030.67
2017-11-03T07:18:20.262Z,1030.67
2017-11-03T07:19:20.256Z,1030.6
2017-11-03T07:20:20.247Z,1030.57
2017-11-03T07:21:20.236Z,1030.6
2017-11-03T07:22:20.228Z,1030.61
2017-11-03T07:23:20.221Z,1030.6
2017-11-03T07:24:20.212Z,1030.65
2017-11-03T07:25:20.209Z,1030.62
2017-11-03T07:26:20.196Z,1030.61
2017-11-03T07:27:20.187Z,1030.58
2017-11-03T07:28:20.179Z,1030.64
2017-11-03T07:29:20.172Z,1030.61
2017-11-03T07:30:20.162Z,1030.59
2017-11-03T07:31:20.158Z,1030.6
2017-11-03T07:32:20.146Z,1030.61
2017-11-03T07:33:20.136Z,1030.55
2017-11-03T07:34:20.130Z,1030.51
2017-11-03T07:35:20.120Z,1030.48
2017-11-03T07:36:20.111Z,1030.44
2017-11-03T07:37:20.104Z,1030.42
2017-11-03T07:38:20.099Z,1030.43
2017-11-03T07:39:20.087Z,1030.38
2017-11-03T07:40:20.085Z,1030.37
2017-11-03T07:41:20.071Z,1030.36
2017-11-03T07:42:20.063Z,1030.41
2017-11-03T07:43:20.055Z,1030.35
2017-11-03T07:44:20.046Z,1030.39
2017-11-03T07:45:20.040Z,1030.39
2017-11-03T07:46:20.030Z,1030.38
2017-11-03T07:47:20.031Z,1030.41
2017-11-03T07:48:20.017Z,1030.38
2017-11-03T07:49:20.010Z,1030.42
2017-11-03T07:50:19.998Z,1030.41
2017-11-03T07:51:19.992Z,1030.37
2017-11-03T07:52:19.984Z,1030.38
2017-11-03T07:53:19.976Z,1030.37
2017-11-03T07:54:19.970Z,1030.41
2017-11-03T07:55:19.960Z,1030.4
2017-11-03T07:56:19.953Z,1030.45
2017-11-03T07:57:19.942Z,1030.44
2017-11-03T07:58:19.951Z,1030.4
2017-11-03T07:59:19.929Z,1030.42
2017-11-03T08:00:19.920Z,1030.32
2017-11-03T08:01:19.912Z,1030.39
2017-11-03T08:02:19.905Z,1030.33
2017-11-03T08:03:19.892Z,1030.37
2017-11-03T08:04:19.884Z,1030.35
2017-11-03T08:05:19.887Z,1030.34
2017-11-03T08:06:19.877Z,1030.32
2017-11-03T08:07:19.866Z,1030.29
2017-11-03T08:08:19.858Z,1030.32
2017-11-03T08:09:19.855Z,1030.27
2017-11-03T08:10:19.843Z,1030.28
2017-11-03T08:11:19.835Z,1030.27
2017-11-03T08:12:19.827Z,1030.22
2017-11-03T08:13:19.834Z,1030.18
2017-11-03T08:14:19.814Z,1030.2
2017-11-03T08:15:19.804Z,1030.18
2017-11-03T08:16:19.797Z,1030.15
2017-11-03T08:17:19.792Z,1030.15
2017-11-03T08:18:19.783Z,1030.13
2017-11-03T08:19:19.775Z,1030.17
2017-11-03T08:20:19.769Z,1030.13
2017-11-03T08:21:19.771Z,1030.14
2017-11-03T08:22:19.751Z,1030.18
2017-11-03T08:23:19.745Z,1030.14
2017-11-03T08:24:19.736Z,1030.08
2017-11-03T08:25:19.731Z,1030.07
2017-11-03T08:26:19.721Z,1030.03
2017-11-03T08:27:19.715Z,1030
2017-11-03T08:28:19.707Z,1029.99
2017-11-03T08:29:19.700Z,1030.01
2017-11-03T08:30:19.691Z,1030.01
2017-11-03T08:31:19.686Z,1030.07
2017-11-03T08:32:19.678Z,1030.06
2017-11-03T08:33:19.670Z,1030.06
2017-11-03T08:34:19.663Z,1030.03
2017-11-03T08:35:19.659Z,1030.01
2017-11-03T08:36:19.648Z,1029.98
2017-11-03T08:37:19.640Z,1029.96
2017-11-03T08:38:19.634Z,1029.94
2017-11-03T08:39:19.626Z,1029.9
2017-11-03T08:40:19.619Z,1029.87
2017-11-03T08:41:19.613Z,1029.88
2017-11-03T08:42:19.606Z,1029.79
2017-11-03T08:43:19.609Z,1029.8
2017-11-03T08:44:19.592Z,1029.84
2017-11-03T08:45:19.586Z,1029.88
2017-11-03T08:46:19.576Z,1029.87
2017-11-03T08:47:19.571Z,1029.85
2017-11-03T08:48:19.567Z,1029.84
2017-11-03T08:49:19.555Z,1029.86
2017-11-03T08:50:19.550Z,1029.89
2017-11-03T08:51:19.543Z,1029.85
2017-11-03T08:52:19.542Z,1029.83
2017-11-03T08:53:19.528Z,1029.88
2017-11-03T08:54:19.524Z,1029.9
2017-11-03T08:55:19.514Z,1029.89
2017-11-03T08:56:19.510Z,1029.84
2017-11-03T08:57:19.501Z,1029.83
2017-11-03T08:58:19.494Z,1029.77
2017-11-03T08:59:19.491Z,1029.7
2017-11-03T09:00:19.479Z,1029.7
2017-11-03T09:01:19.475Z,1029.62
2017-11-03T09:02:19.473Z,1029.61
2017-11-03T09:03:19.459Z,1029.59
2017-11-03T09:04:19.457Z,1029.65
2017-11-03T09:05:19.447Z,1029.67
2017-11-03T09:06:19.441Z,1029.63
2017-11-03T09:07:19.443Z,1029.51
2017-11-03T09:08:19.429Z,1029.49
2017-11-03T09:09:19.421Z,1029.47
2017-11-03T09:10:19.413Z,1029.34
2017-11-03T09:11:19.407Z,1029.27
2017-11-03T09:12:19.401Z,1029.27
2017-11-03T09:13:19.395Z,1029.21
2017-11-03T09:14:19.388Z,1029.18
2017-11-03T09:15:19.382Z,1029.14
2017-11-03T09:16:19.374Z,1029.13
2017-11-03T09:17:19.368Z,1029.11
2017-11-03T09:18:19.363Z,1029.11
2017-11-03T09:19:19.362Z,1029.04
2017-11-03T09:20:19.351Z,1028.98
2017-11-03T09:21:19.344Z,1028.98
2017-11-03T09:22:19.343Z,1028.91
2017-11-03T09:23:19.341Z,1028.91
2017-11-03T09:24:19.327Z,1028.83
2017-11-03T09:25:19.320Z,1028.88
2017-11-03T09:26:19.315Z,1028.84
2017-11-03T09:27:19.327Z,1028.81
2017-11-03T09:28:19.303Z,1028.77
2017-11-03T09:29:19.300Z,1028.81
2017-11-03T09:30:19.291Z,1028.78
2017-11-03T09:31:19.286Z,1028.83
2017-11-03T09:32:19.302Z,1028.8
2017-11-03T09:33:19.286Z,1028.8
2017-11-03T09:34:19.270Z,1028.78
2017-11-03T09:35:19.264Z,1028.78
2017-11-03T09:36:19.271Z,1028.76
2017-11-03T09:37:19.263Z,1028.75
2017-11-03T09:38:19.250Z,1028.76
2017-11-03T09:39:19.242Z,1028.73
2017-11-03T09:40:19.238Z,1028.72
2017-11-03T09:41:19.231Z,1028.69
2017-11-03T09:42:19.224Z,1028.72
2017-11-03T09:43:19.237Z,1028.69
2017-11-03T09:44:19.215Z,1028.66
2017-11-03T09:45:19.219Z,1028.66
2017-11-03T09:46:19.206Z,1028.68
2017-11-03T09:47:19.208Z,1028.67
2017-11-03T09:48:19.194Z,1028.72
2017-11-03T09:49:19.188Z,1028.7
2017-11-03T09:50:19.183Z,1028.7
2017-11-03T09:51:19.178Z,1028.68
2017-11-03T09:52:19.174Z,1028.65
2017-11-03T09:53:19.168Z,1028.68
2017-11-03T09:54:19.162Z,1028.75
2017-11-03T09:55:19.159Z,1028.84
2017-11-03T09:56:19.157Z,1028.83
2017-11-03T09:57:19.148Z,1028.87
2017-11-03T09:58:19.159Z,1028.95
2017-11-03T09:59:19.137Z,1028.92
2017-11-03T10:00:19.132Z,1028.99
2017-11-03T10:01:19.130Z,1028.97
2017-11-03T10:02:19.122Z,1028.99
2017-11-03T10:03:19.116Z,1029
2017-11-03T10:04:19.112Z,1028.99
2017-11-03T10:05:19.109Z,1029.1
2017-11-03T10:06:19.110Z,1029.13
2017-11-03T10:07:19.112Z,1029.18
2017-11-03T10:08:19.091Z,1029.16
2017-11-03T10:09:19.087Z,1029.15
2017-11-03T10:10:19.101Z,1029.22
2017-11-03T10:11:19.077Z,1029.22
2017-11-03T10:12:19.071Z,1029.21
2017-11-03T10:13:19.065Z,1029.17
2017-11-03T10:14:19.060Z,1029.14
2017-11-03T10:15:19.079Z,1029.11
2017-11-03T10:16:19.050Z,1029.05
2017-11-03T10:17:19.043Z,1028.99
2017-11-03T10:18:19.047Z,1028.96
2017-11-03T10:19:19.045Z,1028.97
2017-11-03T10:20:19.032Z,1028.93
2017-11-03T10:21:19.024Z,1028.93
2017-11-03T10:22:19.019Z,1028.98
2017-11-03T10:23:19.012Z,1029.02
2017-11-03T10:24:19.007Z,1028.98
2017-11-03T10:25:19.004Z,1028.97
2017-11-03T10:26:19.012Z,1028.88
2017-11-03T10:27:18.996Z,1028.86
2017-11-03T10:28:18.988Z,1028.82
2017-11-03T10:29:18.986Z,1028.78
2017-11-03T10:30:18.978Z,1028.79
2017-11-03T10:31:18.984Z,1028.73
2017-11-03T10:32:18.971Z,1028.69
2017-11-03T10:33:18.961Z,1028.61
2017-11-03T10:34:18.963Z,1028.69
2017-11-03T10:35:18.952Z,1028.67
2017-11-03T10:36:18.959Z,1028.74
2017-11-03T10:37:18.942Z,1028.68
2017-11-03T10:38:18.938Z,1028.71
2017-11-03T10:39:18.932Z,1028.7
2017-11-03T10:40:18.928Z,1028.67
2017-11-03T10:41:18.955Z,1028.71
2017-11-03T10:42:18.917Z,1028.71
2017-11-03T10:43:18.913Z,1028.72
2017-11-03T10:44:18.908Z,1028.69
2017-11-03T10:45:18.909Z,1028.63
2017-11-03T10:46:18.898Z,1028.62
2017-11-03T10:47:18.893Z,1028.57
2017-11-03T10:48:18.889Z,1028.53
2017-11-03T10:49:18.883Z,1028.56
2017-11-03T10:50:18.879Z,1028.54
2017-11-03T10:51:18.874Z,1028.53
2017-11-03T10:52:18.872Z,1028.54
2017-11-03T10:53:18.864Z,1028.59
2017-11-03T10:54:18.859Z,1028.65
2017-11-03T10:55:18.857Z,1028.66
2017-11-03T10:56:18.850Z,1028.65
2017-11-03T10:57:18.844Z,1028.62
2017-11-03T10:58:18.840Z,1028.66
2017-11-03T10:59:18.835Z,1028.62
2017-11-03T11:00:18.831Z,1028.63
2017-11-03T11:01:18.858Z,1028.59
2017-11-03T11:02:18.821Z,1028.55
2017-11-03T11:03:18.815Z,1028.5
2017-11-03T11:04:18.813Z,1028.54
2017-11-03T11:05:18.804Z,1028.51
2017-11-03T11:06:18.802Z,1028.52
2017-11-03T11:07:18.803Z,1028.49
2017-11-03T11:08:18.793Z,1028.47
2017-11-03T11:09:18.785Z,1028.47
2017-11-03T11:10:18.782Z,1028.49
2017-11-03T11:11:18.776Z,1028.48
2017-11-03T11:12:18.797Z,1028.49
2017-11-03T11:13:18.767Z,1028.47
2017-11-03T11:14:18.763Z,1028.51
2017-11-03T11:15:18.759Z,1028.49
2017-11-03T11:16:18.753Z,1028.45
2017-11-03T11:17:18.750Z,1028.41
2017-11-03T11:18:18.743Z,1028.37
2017-11-03T11:19:18.745Z,1028.34
2017-11-03T11:20:18.736Z,1028.32
2017-11-03T11:21:18.731Z,1028.3
2017-11-03T11:22:18.725Z,1028.28
2017-11-03T11:23:18.722Z,1028.32
2017-11-03T11:24:18.719Z,1028.33
2017-11-03T11:25:18.718Z,1028.34
2017-11-03T11:26:18.707Z,1028.37
2017-11-03T11:27:18.706Z,1028.34
2017-11-03T11:28:18.698Z,1028.33
2017-11-03T11:29:18.693Z,1028.33
2017-11-03T11:30:18.689Z,1028.37
2017-11-03T11:31:18.685Z,1028.42
2017-11-03T11:32:18.680Z,1028.49
2017-11-03T11:33:18.679Z,1028.64
2017-11-03T11:34:18.680Z,1028.81
2017-11-03T11:35:18.666Z,1028.9
2017-11-03T11:36:18.665Z,1028.95
2017-11-03T11:37:18.665Z,1028.95
2017-11-03T11:38:18.652Z,1028.95
2017-11-03T11:39:18.650Z,1028.83
2017-11-03T11:40:18.645Z,1028.81
2017-11-03T11:41:18.637Z,1028.72
2017-11-03T11:42:18.635Z,1028.67
2017-11-03T11:43:18.629Z,1028.56
2017-11-03T11:44:18.624Z,1028.5
2017-11-03T11:45:18.620Z,1028.44
2017-11-03T11:46:18.613Z,1028.4
2017-11-03T11:47:18.613Z,1028.43
2017-11-03T11:48:18.604Z,1028.44
2017-11-03T11:49:18.598Z,1028.49
2017-11-03T11:50:18.594Z,1028.48
2017-11-03T11:51:18.590Z,1028.47
2017-11-03T11:52:18.585Z,1028.47
2017-11-03T11:53:18.580Z,1028.49
2017-11-03T11:54:18.578Z,1028.5
2017-11-03T11:55:18.571Z,1028.53
2017-11-03T11:56:18.565Z,1028.63
2017-11-03T11:57:18.561Z,1028.69
2017-11-03T11:58:18.558Z,1028.76
2017-11-03T11:59:18.561Z,1028.79
2017-11-03T12:00:18.547Z,1028.84
2017-11-03T12:01:18.542Z,1028.9
2017-11-03T12:02:18.537Z,1028.95
2017-11-03T12:03:18.531Z,1028.94
2017-11-03T12:04:18.528Z,1028.91
2017-11-03T12:05:18.524Z,1028.95
2017-11-03T12:06:18.517Z,1028.95
2017-11-03T12:07:18.512Z,1028.95